createdAt,value
2023-04-16T00:01:23.903Z,3.80
2023-04-16T00:03:52.269Z,3.60
2023-04-16T00:06:21.042Z,3.30
2023-04-16T00:08:49.133Z,3.20
2023-04-16T00:11:17.607Z,3.20
2023-04-16T00:13:45.922Z,3.30
2023-04-16T00:16:14.179Z,2.90
2023-04-16T00:18:42.432Z,3.20
2023-04-16T00:21:10.734Z,3.00
2023-04-16T00:23:39.394Z,2.60
2023-04-16T00:26:08.379Z,2.70
2023-04-16T00:28:37.027Z,2.40
2023-04-16T00:31:05.240Z,2.30
2023-04-16T00:33:33.611Z,2.40
2023-04-16T00:36:02.350Z,3.30
2023-04-16T00:38:32.702Z,2.30
2023-04-16T00:41:01.197Z,2.50
2023-04-16T00:43:29.347Z,2.40
2023-04-16T00:45:57.680Z,2.40
2023-04-16T00:48:28.316Z,2.40
2023-04-16T00:53:26.260Z,2.00
2023-04-16T00:55:56.242Z,2.20
2023-04-16T00:58:24.358Z,2.30
2023-04-16T01:00:52.514Z,2.50
2023-04-16T01:03:20.796Z,2.20
2023-04-16T01:05:50.756Z,2.10
2023-04-16T01:08:19.436Z,2.70
2023-04-16T01:10:47.998Z,2.20
2023-04-16T01:13:16.404Z,2.10
2023-04-16T01:15:44.793Z,2.20
2023-04-16T01:18:16.620Z,1.90
2023-04-16T01:20:45.632Z,2.50
2023-04-16T01:23:15.616Z,2.00
2023-04-16T01:26:12.752Z,2.00
2023-04-16T01:28:40.793Z,1.90
2023-04-16T01:31:09.137Z,2.00
2023-04-16T01:34:12.636Z,2.40
2023-04-16T01:36:40.737Z,2.30
2023-04-16T01:39:11.701Z,2.00
2023-04-16T01:41:40.199Z,1.90
2023-04-16T01:44:08.454Z,2.30
2023-04-16T01:46:37.860Z,2.40
2023-04-16T01:49:07.751Z,2.20
2023-04-16T01:51:36.006Z,2.70
2023-04-16T01:54:04.454Z,2.40
2023-04-16T01:56:33.065Z,3.70
2023-04-16T01:59:01.109Z,2.70
2023-04-16T02:01:34.670Z,2.10
2023-04-16T02:04:02.879Z,2.40
2023-04-16T02:06:31.679Z,2.70
2023-04-16T02:08:59.887Z,2.50
2023-04-16T02:11:28.124Z,2.40
2023-04-16T02:13:57.070Z,2.10
2023-04-16T02:16:26.662Z,2.50
2023-04-16T02:19:00.986Z,2.30
2023-04-16T02:21:30.005Z,2.00
2023-04-16T02:23:58.140Z,2.30
2023-04-16T02:26:29.808Z,2.10
2023-04-16T02:29:01.601Z,2.10
2023-04-16T02:31:36.271Z,2.40
2023-04-16T02:34:05.502Z,2.20
2023-04-16T02:36:33.456Z,2.50
2023-04-16T02:39:01.641Z,1.40
2023-04-16T02:41:29.797Z,1.70
2023-04-16T02:43:57.845Z,1.50
2023-04-16T02:46:26.258Z,1.70
2023-04-16T02:48:54.625Z,1.90
2023-04-16T02:51:22.545Z,1.50
2023-04-16T02:53:50.663Z,1.80
2023-04-16T02:56:18.713Z,1.60
2023-04-16T02:58:46.743Z,2.00
2023-04-16T03:01:14.924Z,1.70
2023-04-16T03:03:43.393Z,1.70
2023-04-16T03:06:11.833Z,1.30
2023-04-16T03:08:40.108Z,1.50
2023-04-16T03:11:08.380Z,2.00
2023-04-16T03:13:36.402Z,1.70
2023-04-16T03:16:04.642Z,2.00
2023-04-16T03:18:32.784Z,2.20
2023-04-16T03:21:00.809Z,1.70
2023-04-16T03:23:28.913Z,1.60
2023-04-16T03:25:57.424Z,1.60
2023-04-16T03:28:26.326Z,2.40
2023-04-16T03:30:54.548Z,1.50
2023-04-16T03:33:22.985Z,1.90
2023-04-16T03:35:58.603Z,1.80
2023-04-16T03:38:28.820Z,1.60
2023-04-16T03:40:57.974Z,1.70
2023-04-16T03:43:26.243Z,2.10
2023-04-16T03:45:54.476Z,1.70
2023-04-16T03:48:24.121Z,1.50
2023-04-16T03:50:52.092Z,1.30
2023-04-16T03:53:21.180Z,1.40
2023-04-16T03:55:52.649Z,1.80
2023-04-16T03:58:21.376Z,1.50
2023-04-16T04:00:49.532Z,1.60
2023-04-16T04:03:18.775Z,1.40
2023-04-16T04:05:48.575Z,1.50
2023-04-16T04:08:20.199Z,1.30
2023-04-16T04:10:48.286Z,1.50
2023-04-16T04:13:16.525Z,1.80
2023-04-16T04:15:45.174Z,1.70
2023-04-16T04:18:13.134Z,1.60
2023-04-16T04:20:41.464Z,1.60
2023-04-16T04:23:10.112Z,1.80
2023-04-16T04:25:38.089Z,1.90
2023-04-16T04:28:08.451Z,1.90
2023-04-16T04:30:37.130Z,1.70
2023-04-16T04:33:07.079Z,2.10
2023-04-16T04:35:35.251Z,1.70
2023-04-16T04:38:03.558Z,2.20
2023-04-16T04:40:32.184Z,2.00
2023-04-16T04:43:00.428Z,2.00
2023-04-16T04:45:31.168Z,1.70
2023-04-16T04:48:00.257Z,1.80
2023-04-16T04:50:29.300Z,2.00
2023-04-16T04:52:57.585Z,1.60
2023-04-16T04:55:25.997Z,1.50
2023-04-16T04:57:54.634Z,1.70
2023-04-16T05:00:22.983Z,1.70
2023-04-16T05:02:54.825Z,1.60
2023-04-16T05:05:23.242Z,1.50
2023-04-16T05:07:51.543Z,1.80
2023-04-16T05:10:19.898Z,2.60
2023-04-16T05:12:51.136Z,2.10
2023-04-16T05:15:19.262Z,1.50
2023-04-16T05:18:11.532Z,2.10
2023-04-16T05:20:45.761Z,2.00
2023-04-16T05:23:15.774Z,2.20
2023-04-16T05:25:46.702Z,1.60
2023-04-16T05:28:14.826Z,2.10
2023-04-16T05:30:42.845Z,2.30
2023-04-16T05:33:10.825Z,2.10
2023-04-16T05:35:38.990Z,2.10
2023-04-16T05:38:08.811Z,2.30
2023-04-16T05:40:36.910Z,2.60
2023-04-16T05:43:30.798Z,3.20
2023-04-16T05:46:22.983Z,2.30
2023-04-16T05:48:51.536Z,2.40
2023-04-16T05:51:20.230Z,1.80
2023-04-16T05:53:48.203Z,2.30
2023-04-16T05:56:16.351Z,2.60
2023-04-16T05:58:44.669Z,1.90
2023-04-16T06:01:12.767Z,2.20
2023-04-16T06:03:41.180Z,1.80
2023-04-16T06:06:09.576Z,2.80
2023-04-16T06:08:37.525Z,2.00
2023-04-16T06:11:05.704Z,1.90
2023-04-16T06:13:33.842Z,2.20
2023-04-16T06:16:02.201Z,2.80
2023-04-16T06:18:30.433Z,2.30
2023-04-16T06:21:01.246Z,2.60
2023-04-16T06:23:29.451Z,2.60
2023-04-16T06:25:57.745Z,2.00
2023-04-16T06:28:25.876Z,2.00
2023-04-16T06:30:54.101Z,2.70
2023-04-16T06:33:22.155Z,2.60
2023-04-16T06:35:50.317Z,3.10
2023-04-16T06:38:18.929Z,5.90
2023-04-16T06:40:48.807Z,8.20
2023-04-16T06:43:18.000Z,4.60
2023-04-16T06:45:46.161Z,3.10
2023-04-16T06:48:14.265Z,3.10
2023-04-16T06:50:42.371Z,3.10
2023-04-16T06:53:10.573Z,4.30
2023-04-16T06:55:38.583Z,3.50
2023-04-16T06:58:06.797Z,2.90
2023-04-16T07:00:35.104Z,9.10
2023-04-16T07:03:03.613Z,18.00
2023-04-16T07:05:31.981Z,11.80
2023-04-16T07:08:00.069Z,10.80
2023-04-16T07:10:28.230Z,9.80
2023-04-16T07:12:56.338Z,4.80
2023-04-16T07:15:24.976Z,9.10
2023-04-16T07:17:53.086Z,4.50
2023-04-16T07:20:21.492Z,14.10
2023-04-16T07:22:49.800Z,4.50
2023-04-16T07:25:17.901Z,17.00
2023-04-16T07:27:45.996Z,42.70
2023-04-16T07:30:14.249Z,10.10
2023-04-16T07:32:43.158Z,4.60
2023-04-16T07:35:11.375Z,26.40
2023-04-16T07:37:39.556Z,20.70
2023-04-16T07:40:08.664Z,60.70
2023-04-16T07:42:37.219Z,5.30
2023-04-16T07:45:05.496Z,3.50
2023-04-16T07:47:33.595Z,3.00
2023-04-16T07:50:04.622Z,3.20
2023-04-16T07:52:35.191Z,5.00
2023-04-16T07:55:03.398Z,4.30
2023-04-16T07:57:31.429Z,3.60
2023-04-16T08:00:02.145Z,3.30
2023-04-16T08:02:42.037Z,4.70
2023-04-16T08:05:11.308Z,3.70
2023-04-16T08:07:39.351Z,4.90
2023-04-16T08:10:08.246Z,3.50
2023-04-16T08:12:36.515Z,3.00
2023-04-16T08:15:04.922Z,4.00
2023-04-16T08:17:34.609Z,3.50
2023-04-16T08:20:02.885Z,4.00
2023-04-16T08:22:31.081Z,3.50
2023-04-16T08:24:59.325Z,4.10
2023-04-16T08:27:27.841Z,3.20
2023-04-16T08:29:56.331Z,3.80
2023-04-16T08:32:25.357Z,3.50
2023-04-16T08:34:56.016Z,4.20
2023-04-16T08:37:26.034Z,4.50
2023-04-16T08:39:53.997Z,3.80
2023-04-16T08:42:24.959Z,4.00
2023-04-16T08:44:56.343Z,3.70
2023-04-16T08:47:25.694Z,3.30
2023-04-16T08:49:56.305Z,3.20
2023-04-16T08:52:28.584Z,3.30
2023-04-16T08:54:59.725Z,4.50
2023-04-16T08:57:31.005Z,3.90
2023-04-16T08:59:59.722Z,3.30
2023-04-16T09:02:28.125Z,4.70
2023-04-16T09:04:56.856Z,3.10
2023-04-16T09:07:25.911Z,4.30
2023-04-16T09:09:53.946Z,3.50
2023-04-16T09:12:25.555Z,3.30
2023-04-16T09:14:53.743Z,3.90
2023-04-16T09:17:21.857Z,4.10
2023-04-16T09:19:50.657Z,7.20
2023-04-16T09:22:18.730Z,5.10
2023-04-16T09:24:46.836Z,5.20
2023-04-16T09:27:15.038Z,4.30
2023-04-16T09:29:43.169Z,4.00
2023-04-16T09:32:12.159Z,5.10
2023-04-16T09:35:00.779Z,4.20
2023-04-16T09:37:30.012Z,4.40
2023-04-16T09:39:58.063Z,5.10
2023-04-16T09:42:30.044Z,3.60
2023-04-16T09:47:41.335Z,3.60
2023-04-16T09:50:11.977Z,4.30
2023-04-16T09:52:43.418Z,4.30
2023-04-16T09:55:11.576Z,4.10
2023-04-16T09:57:39.579Z,5.50
2023-04-16T10:00:09.534Z,5.80
2023-04-16T10:02:41.988Z,9.00
2023-04-16T10:05:14.415Z,4.80
2023-04-16T10:07:42.468Z,3.40
2023-04-16T10:10:10.719Z,4.70
2023-04-16T10:12:38.768Z,5.60
2023-04-16T10:15:07.180Z,4.60
2023-04-16T10:17:35.937Z,5.50
2023-04-16T10:20:33.077Z,5.50
2023-04-16T10:23:04.180Z,4.30
2023-04-16T10:25:32.763Z,4.60
2023-04-16T10:28:00.816Z,8.80
2023-04-16T10:30:29.042Z,12.90
2023-04-16T10:33:00.260Z,6.20
2023-04-16T10:35:30.193Z,4.70
2023-04-16T10:38:18.559Z,4.80
2023-04-16T10:40:47.842Z,4.90
2023-04-16T10:43:19.964Z,5.00
2023-04-16T10:48:18.618Z,3.70
2023-04-16T10:50:57.416Z,4.70
2023-04-16T10:53:36.370Z,3.90
2023-04-16T10:56:06.892Z,3.70
2023-04-16T10:58:36.305Z,5.40
2023-04-16T11:01:15.974Z,6.50
2023-04-16T11:03:44.872Z,5.40
2023-04-16T11:06:17.703Z,6.00
2023-04-16T11:08:55.001Z,5.90
2023-04-16T11:11:39.754Z,4.70
2023-04-16T11:14:10.594Z,5.40
2023-04-16T11:16:40.927Z,4.30
2023-04-16T11:19:19.529Z,3.80
2023-04-16T11:22:08.325Z,3.70
2023-04-16T11:24:46.593Z,3.70
2023-04-16T11:27:16.166Z,4.00
2023-04-16T11:29:46.916Z,3.00
2023-04-16T11:32:24.869Z,4.00
2023-04-16T11:34:53.021Z,3.60
2023-04-16T11:37:22.520Z,3.30
2023-04-16T11:39:53.921Z,3.20
2023-04-16T11:42:23.086Z,3.20
2023-04-16T11:44:55.022Z,3.10
2023-04-16T11:47:24.010Z,2.90
2023-04-16T11:49:52.497Z,2.80
2023-04-16T11:52:31.128Z,2.60
2023-04-16T11:54:59.616Z,2.50
2023-04-16T11:57:28.589Z,2.80
2023-04-16T12:00:02.430Z,2.60
2023-04-16T12:02:43.961Z,2.40
2023-04-16T12:05:31.301Z,2.80
2023-04-16T12:08:00.505Z,2.40
2023-04-16T12:10:29.242Z,2.60
2023-04-16T12:13:17.880Z,2.30
2023-04-16T12:15:46.958Z,2.50
2023-04-16T12:18:16.786Z,2.40
2023-04-16T12:20:45.545Z,2.30
2023-04-16T12:23:24.497Z,1.90
2023-04-16T12:25:52.851Z,2.40
2023-04-16T12:28:28.222Z,2.50
2023-04-16T12:30:57.085Z,2.10
2023-04-16T12:33:27.604Z,2.00
2023-04-16T12:35:56.115Z,1.90
2023-04-16T12:38:25.672Z,2.50
2023-04-16T12:40:56.838Z,3.60
2023-04-16T12:43:25.871Z,2.60
2023-04-16T12:45:54.228Z,16.00
2023-04-16T12:48:22.407Z,65.40
2023-04-16T12:50:53.528Z,13.90
2023-04-16T12:53:21.442Z,2.90
2023-04-16T12:55:49.863Z,2.70
2023-04-16T12:58:18.119Z,2.90
2023-04-16T13:00:46.388Z,4.00
2023-04-16T13:03:15.289Z,5.20
2023-04-16T13:05:43.846Z,2.80
2023-04-16T13:08:12.073Z,2.80
2023-04-16T13:10:40.465Z,2.70
2023-04-16T13:13:08.599Z,2.60
2023-04-16T13:15:36.841Z,4.80
2023-04-16T13:18:05.870Z,4.10
2023-04-16T13:20:34.368Z,5.30
2023-04-16T13:23:05.116Z,5.20
2023-04-16T13:25:33.904Z,5.20
2023-04-16T13:28:02.338Z,9.50
2023-04-16T13:30:36.426Z,57.10
2023-04-16T13:33:04.715Z,9.50
2023-04-16T13:35:35.995Z,8.00
2023-04-16T13:38:11.063Z,6.50
2023-04-16T13:40:39.140Z,7.70
2023-04-16T13:43:09.227Z,8.10
2023-04-16T13:45:46.459Z,9.50
2023-04-16T13:48:14.504Z,9.70
2023-04-16T13:50:42.709Z,12.40
2023-04-16T13:53:13.941Z,11.10
2023-04-16T13:55:44.608Z,8.80
2023-04-16T13:58:20.457Z,8.50
2023-04-16T14:00:49.028Z,9.50
2023-04-16T14:03:17.376Z,8.70
2023-04-16T14:05:45.606Z,8.50
2023-04-16T14:08:14.927Z,9.90
2023-04-16T14:10:43.217Z,13.80
2023-04-16T14:13:12.502Z,10.90
2023-04-16T14:15:40.606Z,22.90
2023-04-16T14:18:08.862Z,12.80
2023-04-16T14:20:39.986Z,11.90
2023-04-16T14:23:08.058Z,11.80
2023-04-16T14:25:36.200Z,11.50
2023-04-16T14:28:04.417Z,12.00
2023-04-16T14:30:32.387Z,11.80
2023-04-16T14:33:00.632Z,10.90
2023-04-16T14:35:29.028Z,10.50
2023-04-16T14:37:57.271Z,8.90
2023-04-16T14:40:25.779Z,11.70
2023-04-16T14:42:54.363Z,11.60
2023-04-16T14:45:23.307Z,11.10
2023-04-16T14:47:51.606Z,12.80
2023-04-16T14:50:19.802Z,13.60
2023-04-16T14:52:48.089Z,11.80
2023-04-16T14:55:19.965Z,22.60
2023-04-16T14:57:48.521Z,13.50
2023-04-16T15:00:25.151Z,32.90
2023-04-16T15:02:54.382Z,36.80
2023-04-16T15:05:22.721Z,30.20
2023-04-16T15:07:58.569Z,64.70
2023-04-16T15:10:35.330Z,58.80
2023-04-16T15:13:19.569Z,44.40
2023-04-16T15:15:48.112Z,55.30
2023-04-16T15:18:16.927Z,125.60
2023-04-16T15:20:45.201Z,104.90
2023-04-16T15:23:13.445Z,93.70
2023-04-16T15:25:41.517Z,131.10
2023-04-16T15:28:12.997Z,133.30
2023-04-16T15:30:44.193Z,75.30
2023-04-16T15:33:12.371Z,73.70
2023-04-16T15:35:41.549Z,77.80
2023-04-16T15:38:11.621Z,30.20
2023-04-16T15:40:39.870Z,29.40
2023-04-16T15:46:11.001Z,24.30
2023-04-16T15:48:41.813Z,28.70
2023-04-16T15:51:13.374Z,23.90
2023-04-16T15:53:50.279Z,21.10
2023-04-16T15:56:20.652Z,22.50
2023-04-16T15:58:58.024Z,17.80
2023-04-16T16:01:26.594Z,17.70
2023-04-16T16:03:55.536Z,13.10
2023-04-16T16:06:28.658Z,15.00
2023-04-16T16:09:04.194Z,13.10
2023-04-16T16:11:32.956Z,12.50
2023-04-16T16:14:03.801Z,14.20
2023-04-16T16:16:33.040Z,13.80
2023-04-16T16:19:01.384Z,13.90
2023-04-16T16:21:33.107Z,12.90
2023-04-16T16:24:01.151Z,13.00
2023-04-16T16:26:29.709Z,12.20
2023-04-16T16:28:58.251Z,12.00
2023-04-16T16:31:26.356Z,12.60
2023-04-16T16:33:54.773Z,10.90
2023-04-16T16:36:23.011Z,11.80
2023-04-16T16:38:51.452Z,12.30
2023-04-16T16:41:19.784Z,11.80
2023-04-16T16:43:48.197Z,10.20
2023-04-16T16:46:16.456Z,10.40
2023-04-16T16:48:44.871Z,10.70
2023-04-16T16:51:15.088Z,12.00
2023-04-16T16:53:43.033Z,10.70
2023-04-16T16:56:11.625Z,10.90
2023-04-16T16:58:39.656Z,11.50
2023-04-16T17:01:07.839Z,11.50
2023-04-16T17:03:36.607Z,12.40
2023-04-16T17:06:04.964Z,10.90
2023-04-16T17:08:40.155Z,12.20
2023-04-16T17:11:08.414Z,10.10
2023-04-16T17:13:36.529Z,13.40
2023-04-16T17:16:04.807Z,10.70
2023-04-16T17:18:33.477Z,12.70
2023-04-16T17:21:02.045Z,13.50
2023-04-16T17:23:31.161Z,14.60
2023-04-16T17:25:59.699Z,16.80
2023-04-16T17:28:27.901Z,17.10
2023-04-16T17:30:57.226Z,18.80
2023-04-16T17:33:28.318Z,24.00
2023-04-16T17:35:56.528Z,25.30
2023-04-16T17:38:24.904Z,20.70
2023-04-16T17:40:53.066Z,24.40
2023-04-16T17:43:21.476Z,27.40
2023-04-16T17:45:49.520Z,26.40
2023-04-16T17:48:17.678Z,26.90
2023-04-16T17:50:45.654Z,26.60
2023-04-16T17:53:13.848Z,24.60
2023-04-16T17:55:49.979Z,29.50
2023-04-16T17:58:18.583Z,24.60
2023-04-16T18:00:46.837Z,26.60
2023-04-16T18:03:15.010Z,28.90
2023-04-16T18:05:43.518Z,26.20
2023-04-16T18:08:11.713Z,25.60
2023-04-16T18:10:43.835Z,26.80
2023-04-16T18:13:16.041Z,27.90
2023-04-16T18:15:44.416Z,29.10
2023-04-16T18:18:12.513Z,26.80
2023-04-16T18:20:40.927Z,27.90
2023-04-16T18:23:11.037Z,27.60
2023-04-16T18:25:40.346Z,28.30
2023-04-16T18:28:09.532Z,28.80
2023-04-16T18:30:40.498Z,29.10
2023-04-16T18:33:38.435Z,30.60
2023-04-16T18:35:57.278Z,28.40
2023-04-16T18:38:25.736Z,28.00
2023-04-16T18:40:53.776Z,29.60
2023-04-16T18:43:22.256Z,30.00
2023-04-16T18:45:50.427Z,30.80
2023-04-16T18:48:18.444Z,30.10
2023-04-16T18:50:46.879Z,31.90
2023-04-16T18:53:14.990Z,30.50
2023-04-16T18:55:43.109Z,26.70
2023-04-16T18:58:11.828Z,29.60
2023-04-16T19:00:40.317Z,28.60
2023-04-16T19:03:09.716Z,29.10
2023-04-16T19:05:38.341Z,31.00
2023-04-16T19:08:09.012Z,27.20
2023-04-16T19:10:37.094Z,30.30
2023-04-16T19:13:05.369Z,30.60
2023-04-16T19:15:34.888Z,31.20
2023-04-16T19:18:03.504Z,29.90
2023-04-16T19:20:34.801Z,33.10
2023-04-16T19:23:05.785Z,30.20
2023-04-16T19:25:34.483Z,30.80
2023-04-16T19:28:04.059Z,29.10
2023-04-16T19:30:35.438Z,28.10
2023-04-16T19:33:04.096Z,28.60
2023-04-16T19:35:37.297Z,29.10
2023-04-16T19:38:10.291Z,27.60
2023-04-16T19:41:00.695Z,25.50
2023-04-16T19:43:39.914Z,28.00
2023-04-16T19:49:07.751Z,27.10
2023-04-16T19:51:36.123Z,25.00
2023-04-16T19:54:04.201Z,28.20
2023-04-16T19:56:32.467Z,23.60
2023-04-16T19:59:02.229Z,23.70
2023-04-16T20:01:32.872Z,25.20
2023-04-16T20:04:01.150Z,27.50
2023-04-16T20:06:29.972Z,25.20
2023-04-16T20:08:58.148Z,26.40
2023-04-16T20:11:26.854Z,25.20
2023-04-16T20:13:55.047Z,26.20
2023-04-16T20:16:23.357Z,24.80
2023-04-16T20:18:54.295Z,24.20
2023-04-16T20:21:22.869Z,23.70
2023-04-16T20:23:50.905Z,23.40
2023-04-16T20:26:19.462Z,23.00
2023-04-16T20:28:47.638Z,22.20
2023-04-16T20:31:15.762Z,22.90
2023-04-16T20:33:44.075Z,24.90
2023-04-16T20:36:12.540Z,24.00
2023-04-16T20:38:42.441Z,22.30
2023-04-16T20:41:11.012Z,21.80
2023-04-16T20:43:42.362Z,23.70
2023-04-16T20:46:11.243Z,21.90
2023-04-16T20:48:39.449Z,21.50
2023-04-16T20:51:09.759Z,22.20
2023-04-16T20:53:38.432Z,23.20
2023-04-16T20:56:07.053Z,23.80
2023-04-16T20:58:35.506Z,21.60
2023-04-16T21:01:04.937Z,21.20
2023-04-16T21:03:33.853Z,21.20
2023-04-16T21:06:02.369Z,20.10
2023-04-16T21:08:30.489Z,22.20
2023-04-16T21:10:58.625Z,20.70
2023-04-16T21:13:26.895Z,22.60
2023-04-16T21:15:54.958Z,21.00
2023-04-16T21:18:23.277Z,20.90
2023-04-16T21:20:51.577Z,19.60
2023-04-16T21:23:19.617Z,21.10
2023-04-16T21:25:47.915Z,19.70
2023-04-16T21:28:19.528Z,20.00
2023-04-16T21:30:51.163Z,18.80
2023-04-16T21:33:19.584Z,19.40
2023-04-16T21:35:54.226Z,19.00
2023-04-16T21:38:22.401Z,18.20
2023-04-16T21:40:53.761Z,20.00
2023-04-16T21:43:22.066Z,15.60
2023-04-16T21:45:53.594Z,19.60
2023-04-16T21:48:22.048Z,18.50
2023-04-16T21:50:56.434Z,16.70
2023-04-16T21:53:25.352Z,16.50
2023-04-16T21:55:53.495Z,17.90
2023-04-16T21:58:21.815Z,15.90
2023-04-16T22:00:49.894Z,16.50
2023-04-16T22:03:18.760Z,16.20
2023-04-16T22:05:47.348Z,16.90
2023-04-16T22:08:23.980Z,16.30
2023-04-16T22:10:52.439Z,16.00
2023-04-16T22:13:21.734Z,16.40
2023-04-16T22:15:49.770Z,14.90
2023-04-16T22:18:18.408Z,16.40
2023-04-16T22:20:51.039Z,15.10
2023-04-16T22:23:19.404Z,15.10
2023-04-16T22:25:47.785Z,16.60
2023-04-16T22:28:15.994Z,15.90
2023-04-16T22:30:44.267Z,14.70
2023-04-16T22:33:12.438Z,15.80
2023-04-16T22:35:40.930Z,16.40
2023-04-16T22:38:10.250Z,15.00
2023-04-16T22:40:38.580Z,13.60
2023-04-16T22:43:06.710Z,14.10
2023-04-16T22:45:35.027Z,15.50
2023-04-16T22:48:03.248Z,15.10
2023-04-16T22:50:31.538Z,13.50
2023-04-16T22:52:59.962Z,14.70
2023-04-16T22:55:28.141Z,14.50
2023-04-16T22:57:56.390Z,13.50
2023-04-16T23:00:25.189Z,15.00
2023-04-16T23:02:53.676Z,13.40
2023-04-16T23:05:21.811Z,14.30
2023-04-16T23:07:50.084Z,14.40
2023-04-16T23:10:18.167Z,13.60
2023-04-16T23:12:46.280Z,14.90
2023-04-16T23:15:14.622Z,13.50
2023-04-16T23:17:42.890Z,12.60
2023-04-16T23:20:14.318Z,13.80
2023-04-16T23:22:42.573Z,13.60
2023-04-16T23:25:11.114Z,13.60
2023-04-16T23:27:39.190Z,12.70
2023-04-16T23:30:07.685Z,12.50
2023-04-16T23:32:36.373Z,12.90
2023-04-16T23:35:04.581Z,11.90
2023-04-16T23:37:32.941Z,11.30
2023-04-16T23:40:03.920Z,13.20
2023-04-16T23:42:32.000Z,11.40
2023-04-16T23:45:00.572Z,13.00
2023-04-16T23:47:28.669Z,15.60
2023-04-16T23:49:57.039Z,12.90
2023-04-16T23:52:25.281Z,11.90
2023-04-16T23:54:53.548Z,11.40
2023-04-16T23:57:21.591Z,12.50
2023-04-16T23:59:49.912Z,12.90
